Terminal Aerodrome Forecast
Issued by NWS

Home | Current Version | Previous Version | Text Only | Print | Product List | Glossary Off
Versions: 1 2 3 4 5 6 7 8 9 10 11 12 13 14 15

000
FTUS43 KPAH 180227 AAA
TAFCGI
TAF AMD
KCGI 180227Z 1802/1824 20004KT P6SM OVC007
      TEMPO 1804/1808 5SM BR OVC003
     FM180800 19003KT 2SM -DZ BR OVC003
     FM181400 23006KT 5SM BR SCT005 OVC012
     FM181800 23009KT P6SM OVC025=

USA.gov is the U.S. government's official web portal to all federal, state and local government web resources and services.